Al Rekayyat — V7QF3 — position and weather

sailwx.info

Track history (hours):
 
Tides and Currents Weather Stations Pressure Air Temp Water Temp Dewpoint Dewpoint Depression Visibility Wind Speed Wind Dir Waves Ship Positions

Al Rekayyat

Last reported at 2014-Jul-11 03:06 UTC. Time now 2014-Aug-02 06:30 UTC.
Position N 01°12' E 103°37'.
Warning: this ship's position is 22 days out of date.

Length 315 m; draft 9.6 m.

Type: Tanker. MMSI: 538003347.

Date/timePositionNaut miles runAvg speedWind from/ knotsBaromVisibWave heightAir tempDewpointWater temp
2014-Jul-11 03:06N 01°12' E 103°37'1811.7
2014-Jul-11 01:32N 01°14' E 103°55'  
2014-Jul-06 05:33N 29°36' E 122°31'1111.2
2014-Jul-06 04:33N 29°43' E 122°21'9 9.2
2014-Jul-06 03:33N 29°49' E 122°13'8 8.4
2014-Jul-06 02:33N 29°54' E 122°05'0 0.3
2014-Jul-06 01:33N 29°54' E 122°05'0 0.0
2014-Jul-06 00:33N 29°54' E 122°05'0 0.0
2014-Jul-04 08:32N 29°54' E 122°05'1 0.8
2014-Jul-04 07:33N 29°55' E 122°05'8 7.6
2014-Jul-04 06:33N 29°50' E 122°13'1111.1
2014-Jul-04 05:33N 29°44' E 122°23'8 8.5
2014-Jul-04 04:33N 29°41' E 122°32'5 5.3
2014-Jul-04 03:32N 29°36' E 122°34'5 4.7
2014-Jul-04 02:31N 29°31' E 122°36'13 5.4
2014-Jul-04 00:13N 29°22' E 122°45'4 5.1
2014-Jul-03 23:28N 29°18' E 122°47'3 3.7
2014-Jul-03 22:32N 29°15' E 122°49'11 4.4
2014-Jul-03 20:03N 29°05' E 122°53'3 5.3
2014-Jul-03 19:27N 29°02' E 122°54'  
Track history (hours):
 
Tides and Currents Weather Stations Pressure Air Temp Water Temp Dewpoint Dewpoint Depression Visibility Wind Speed Wind Dir Waves Ship Positions

Al Rekayyat

Last reported at 2014-Jul-11 03:06 UTC. Time now 2014-Aug-02 06:30 UTC.
Position N 01°12' E 103°37'.
Warning: this ship's position is 22 days out of date.

Length 315 m; draft 9.6 m.

Type: Tanker. MMSI: 538003347.

Date/timePositionNaut miles runAvg speedWind from/ knotsBaromVisibWave heightAir tempDewpointWater temp
2014-Jul-11 03:06N 01°12' E 103°37'1811.7
2014-Jul-11 01:32N 01°14' E 103°55'  
2014-Jul-06 05:33N 29°36' E 122°31'1111.2
2014-Jul-06 04:33N 29°43' E 122°21'9 9.2
2014-Jul-06 03:33N 29°49' E 122°13'8 8.4
2014-Jul-06 02:33N 29°54' E 122°05'0 0.3
2014-Jul-06 01:33N 29°54' E 122°05'0 0.0
2014-Jul-06 00:33N 29°54' E 122°05'0 0.0
2014-Jul-04 08:32N 29°54' E 122°05'1 0.8
2014-Jul-04 07:33N 29°55' E 122°05'8 7.6
2014-Jul-04 06:33N 29°50' E 122°13'1111.1
2014-Jul-04 05:33N 29°44' E 122°23'8 8.5
2014-Jul-04 04:33N 29°41' E 122°32'5 5.3
2014-Jul-04 03:32N 29°36' E 122°34'5 4.7
2014-Jul-04 02:31N 29°31' E 122°36'13 5.4
2014-Jul-04 00:13N 29°22' E 122°45'4 5.1
2014-Jul-03 23:28N 29°18' E 122°47'3 3.7
2014-Jul-03 22:32N 29°15' E 122°49'11 4.4
2014-Jul-03 20:03N 29°05' E 122°53'3 5.3
2014-Jul-03 19:27N 29°02' E 122°54'  

Dump ship's entire track history